sensor_id;sensor_type;location;lat;lon;timestamp;pressure;altitude;pressure_sealevel;temperature;humidity
68508;BME280;55510;49.560;19.090;2023-05-13T00:00:18;96867.84;;;8.62;82.03
68508;BME280;55510;49.560;19.090;2023-05-13T00:03:38;96861.13;;;8.60;82.48
68508;BME280;55510;49.560;19.090;2023-05-13T00:06:39;96857.66;;;8.59;81.83
68508;BME280;55510;49.560;19.090;2023-05-13T00:09:40;96864.00;;;8.58;80.40
68508;BME280;55510;49.560;19.090;2023-05-13T00:12:40;96864.22;;;8.56;81.02
68508;BME280;55510;49.560;19.090;2023-05-13T00:15:41;96860.75;;;8.56;81.78
68508;BME280;55510;49.560;19.090;2023-05-13T00:18:42;96857.16;;;8.50;82.40
68508;BME280;55510;49.560;19.090;2023-05-13T00:21:43;96856.72;;;8.47;82.10
68508;BME280;55510;49.560;19.090;2023-05-13T00:24:43;96852.09;;;8.42;82.49
68508;BME280;55510;49.560;19.090;2023-05-13T00:27:44;96848.47;;;8.36;82.70
68508;BME280;55510;49.560;19.090;2023-05-13T00:30:45;96851.16;;;8.30;84.22
68508;BME280;55510;49.560;19.090;2023-05-13T00:33:46;96853.06;;;8.22;84.67
68508;BME280;55510;49.560;19.090;2023-05-13T00:36:46;96852.06;;;8.17;84.87
68508;BME280;55510;49.560;19.090;2023-05-13T00:39:47;96860.22;;;7.96;85.96
68508;BME280;55510;49.560;19.090;2023-05-13T00:42:48;96857.72;;;8.02;85.12
68508;BME280;55510;49.560;19.090;2023-05-13T00:45:49;96854.03;;;8.03;84.71
68508;BME280;55510;49.560;19.090;2023-05-13T00:48:50;96858.50;;;8.02;84.91
68508;BME280;55510;49.560;19.090;2023-05-13T00:51:51;96861.41;;;8.01;84.63
68508;BME280;55510;49.560;19.090;2023-05-13T00:54:54;96866.09;;;7.98;84.19
68508;BME280;55510;49.560;19.090;2023-05-13T00:57:55;96866.94;;;7.92;84.71
68508;BME280;55510;49.560;19.090;2023-05-13T01:10:46;96872.44;;;7.97;82.72
68508;BME280;55510;49.560;19.090;2023-05-13T01:14:02;96874.47;;;7.95;83.24
68508;BME280;55510;49.560;19.090;2023-05-13T01:17:20;96873.66;;;7.95;82.84
68508;BME280;55510;49.560;19.090;2023-05-13T01:20:25;96872.84;;;7.94;82.75
68508;BME280;55510;49.560;19.090;2023-05-13T01:23:27;96878.97;;;7.95;82.72
68508;BME280;55510;49.560;19.090;2023-05-13T01:26:27;96880.78;;;7.94;82.94
68508;BME280;55510;49.560;19.090;2023-05-13T01:29:29;96885.53;;;7.86;84.44
68508;BME280;55510;49.560;19.090;2023-05-13T01:32:30;96874.72;;;7.87;83.96
68508;BME280;55510;49.560;19.090;2023-05-13T01:35:31;96876.34;;;7.88;83.49
68508;BME280;55510;49.560;19.090;2023-05-13T01:38:34;96882.25;;;7.90;83.40
68508;BME280;55510;49.560;19.090;2023-05-13T01:41:35;96885.13;;;7.89;83.55
68508;BME280;55510;49.560;19.090;2023-05-13T01:44:35;96892.06;;;7.83;84.33
68508;BME280;55510;49.560;19.090;2023-05-13T01:47:36;96894.13;;;7.81;84.45
68508;BME280;55510;49.560;19.090;2023-05-13T01:50:37;96877.84;;;7.77;85.27
68508;BME280;55510;49.560;19.090;2023-05-13T01:53:38;96880.31;;;7.72;85.23
68508;BME280;55510;49.560;19.090;2023-05-13T01:56:38;96888.06;;;7.74;86.06
68508;BME280;55510;49.560;19.090;2023-05-13T01:59:39;96884.47;;;7.61;86.00
68508;BME280;55510;49.560;19.090;2023-05-13T02:02:40;96878.34;;;7.61;86.79
68508;BME280;55510;49.560;19.090;2023-05-13T02:05:41;96881.22;;;7.59;86.91
68508;BME280;55510;49.560;19.090;2023-05-13T02:08:41;96873.03;;;7.61;86.80
68508;BME280;55510;49.560;19.090;2023-05-13T02:11:44;96884.84;;;7.65;85.68
68508;BME280;55510;49.560;19.090;2023-05-13T02:14:44;96881.97;;;7.66;84.92
68508;BME280;55510;49.560;19.090;2023-05-13T02:17:45;96880.72;;;7.69;84.74
68508;BME280;55510;49.560;19.090;2023-05-13T02:20:46;96875.50;;;7.62;85.78
68508;BME280;55510;49.560;19.090;2023-05-13T02:23:47;96877.91;;;7.64;85.10
68508;BME280;55510;49.560;19.090;2023-05-13T02:26:47;96877.72;;;7.65;84.73
68508;BME280;55510;49.560;19.090;2023-05-13T02:29:48;96881.97;;;7.66;84.30
68508;BME280;55510;49.560;19.090;2023-05-13T02:32:49;96879.34;;;7.66;84.97
68508;BME280;55510;49.560;19.090;2023-05-13T02:35:50;96882.78;;;7.67;84.30
68508;BME280;55510;49.560;19.090;2023-05-13T02:38:50;96885.44;;;7.67;83.83
68508;BME280;55510;49.560;19.090;2023-05-13T02:41:51;96885.66;;;7.65;83.82
68508;BME280;55510;49.560;19.090;2023-05-13T02:44:53;96890.34;;;7.63;84.25
68508;BME280;55510;49.560;19.090;2023-05-13T02:47:53;96895.66;;;7.63;84.21
68508;BME280;55510;49.560;19.090;2023-05-13T02:50:54;96897.97;;;7.53;86.56
68508;BME280;55510;49.560;19.090;2023-05-13T02:53:55;96899.38;;;7.49;87.09
68508;BME280;55510;49.560;19.090;2023-05-13T02:56:55;96902.03;;;7.49;86.99
68508;BME280;55510;49.560;19.090;2023-05-13T02:59:56;96904.66;;;7.49;87.14
68508;BME280;55510;49.560;19.090;2023-05-13T03:02:57;96904.66;;;7.49;87.12
68508;BME280;55510;49.560;19.090;2023-05-13T03:05:57;96907.31;;;7.49;87.31
68508;BME280;55510;49.560;19.090;2023-05-13T03:08:58;96900.41;;;7.48;88.12
68508;BME280;55510;49.560;19.090;2023-05-13T03:11:59;96902.88;;;7.43;89.21
68508;BME280;55510;49.560;19.090;2023-05-13T03:15:00;96905.16;;;7.32;91.07
68508;BME280;55510;49.560;19.090;2023-05-13T03:18:00;96911.47;;;7.31;91.15
68508;BME280;55510;49.560;19.090;2023-05-13T03:21:01;96905.34;;;7.37;91.07
68508;BME280;55510;49.560;19.090;2023-05-13T03:24:02;96907.19;;;7.37;90.89
68508;BME280;55510;49.560;19.090;2023-05-13T03:27:03;96909.84;;;7.30;91.35
68508;BME280;55510;49.560;19.090;2023-05-13T03:30:04;96908.22;;;7.29;91.79
68508;BME280;55510;49.560;19.090;2023-05-13T03:33:05;96910.84;;;7.36;91.46
68508;BME280;55510;49.560;19.090;2023-05-13T03:36:06;96913.50;;;7.36;91.11
68508;BME280;55510;49.560;19.090;2023-05-13T03:39:07;96914.91;;;7.38;90.96
68508;BME280;55510;49.560;19.090;2023-05-13T03:42:08;96918.16;;;7.40;90.88
68508;BME280;55510;49.560;19.090;2023-05-13T03:45:08;96923.69;;;7.32;92.01
68508;BME280;55510;49.560;19.090;2023-05-13T03:48:09;96915.75;;;7.32;91.76
68508;BME280;55510;49.560;19.090;2023-05-13T03:51:10;96925.31;;;7.40;91.87
68508;BME280;55510;49.560;19.090;2023-05-13T03:54:11;96930.56;;;7.47;92.02
68508;BME280;55510;49.560;19.090;2023-05-13T03:57:11;96931.75;;;7.51;92.51
68508;BME280;55510;49.560;19.090;2023-05-13T04:00:12;96930.94;;;7.57;92.18
68508;BME280;55510;49.560;19.090;2023-05-13T04:03:14;96941.97;;;7.54;92.20
68508;BME280;55510;49.560;19.090;2023-05-13T04:06:15;96939.91;;;7.56;92.42
68508;BME280;55510;49.560;19.090;2023-05-13T04:09:16;96943.94;;;7.65;91.76
68508;BME280;55510;49.560;19.090;2023-05-13T04:12:17;96944.72;;;7.73;91.50
68508;BME280;55510;49.560;19.090;2023-05-13T04:15:17;96947.94;;;7.81;91.49
68508;BME280;55510;49.560;19.090;2023-05-13T04:18:18;96954.88;;;7.82;90.89
68508;BME280;55510;49.560;19.090;2023-05-13T04:21:19;96944.00;;;7.91;91.02
68508;BME280;55510;49.560;19.090;2023-05-13T04:24:20;96951.13;;;7.97;91.38
68508;BME280;55510;49.560;19.090;2023-05-13T04:27:21;96958.91;;;7.92;90.23
68508;BME280;55510;49.560;19.090;2023-05-13T04:30:23;96954.53;;;8.04;89.83
68508;BME280;55510;49.560;19.090;2023-05-13T04:33:23;96962.03;;;8.14;90.14
68508;BME280;55510;49.560;19.090;2023-05-13T04:36:24;96964.88;;;8.12;89.51
68508;BME280;55510;49.560;19.090;2023-05-13T04:39:25;96962.59;;;8.23;89.49
68508;BME280;55510;49.560;19.090;2023-05-13T04:42:25;96966.22;;;8.28;89.26
68508;BME280;55510;49.560;19.090;2023-05-13T04:45:26;96973.28;;;8.41;88.90
68508;BME280;55510;49.560;19.090;2023-05-13T04:48:27;96969.19;;;8.39;88.08
68508;BME280;55510;49.560;19.090;2023-05-13T04:51:27;96964.69;;;8.46;88.09
68508;BME280;55510;49.560;19.090;2023-05-13T04:54:28;96971.38;;;8.55;86.75
68508;BME280;55510;49.560;19.090;2023-05-13T04:57:29;96970.34;;;8.56;86.46
68508;BME280;55510;49.560;19.090;2023-05-13T05:00:30;96964.75;;;8.65;86.59
68508;BME280;55510;49.560;19.090;2023-05-13T05:03:31;96966.84;;;8.81;86.57
68508;BME280;55510;49.560;19.090;2023-05-13T05:06:32;96963.22;;;9.01;86.42
68508;BME280;55510;49.560;19.090;2023-05-13T05:09:32;96971.44;;;9.18;85.88
68508;BME280;55510;49.560;19.090;2023-05-13T05:12:33;96971.22;;;9.38;84.90
68508;BME280;55510;49.560;19.090;2023-05-13T05:15:34;96973.06;;;9.56;84.22
68508;BME280;55510;49.560;19.090;2023-05-13T05:18:34;96966.78;;;9.69;81.92
68508;BME280;55510;49.560;19.090;2023-05-13T05:21:36;96969.28;;;9.83;81.28
68508;BME280;55510;49.560;19.090;2023-05-13T05:24:36;96970.13;;;9.95;79.28
68508;BME280;55510;49.560;19.090;2023-05-13T05:27:37;96975.72;;;10.06;78.53
68508;BME280;55510;49.560;19.090;2023-05-13T05:30:38;96975.31;;;10.21;78.51
68508;BME280;55510;49.560;19.090;2023-05-13T05:33:39;96980.09;;;10.30;76.43
68508;BME280;55510;49.560;19.090;2023-05-13T05:36:40;96980.97;;;10.43;76.35
68508;BME280;55510;49.560;19.090;2023-05-13T05:39:40;96978.09;;;10.56;75.38
68508;BME280;55510;49.560;19.090;2023-05-13T05:42:42;96972.78;;;10.68;75.41
68508;BME280;55510;49.560;19.090;2023-05-13T05:45:42;96977.09;;;10.81;75.22
68508;BME280;55510;49.560;19.090;2023-05-13T05:48:43;96967.97;;;10.89;73.38
68508;BME280;55510;49.560;19.090;2023-05-13T05:51:43;96976.75;;;10.90;72.48
68508;BME280;55510;49.560;19.090;2023-05-13T05:54:47;96972.38;;;11.07;73.58
68508;BME280;55510;49.560;19.090;2023-05-13T05:57:48;96976.41;;;11.22;73.23
68508;BME280;55510;49.560;19.090;2023-05-13T06:00:49;96975.47;;;11.28;73.81
68508;BME280;55510;49.560;19.090;2023-05-13T06:03:50;96977.78;;;11.36;72.41
68508;BME280;55510;49.560;19.090;2023-05-13T06:06:50;96978.13;;;11.40;72.41
68508;BME280;55510;49.560;19.090;2023-05-13T06:09:51;96988.31;;;11.43;71.70
68508;BME280;55510;49.560;19.090;2023-05-13T06:12:52;96986.56;;;11.49;71.90
68508;BME280;55510;49.560;19.090;2023-05-13T06:15:52;96991.44;;;11.52;71.13
68508;BME280;55510;49.560;19.090;2023-05-13T06:18:53;96986.81;;;11.47;70.63
68508;BME280;55510;49.560;19.090;2023-05-13T06:21:54;96987.94;;;11.63;70.45
68508;BME280;55510;49.560;19.090;2023-05-13T06:24:55;96991.63;;;11.74;69.17
68508;BME280;55510;49.560;19.090;2023-05-13T06:27:55;96989.00;;;11.91;69.26
68508;BME280;55510;49.560;19.090;2023-05-13T06:30:56;96979.72;;;12.06;69.22
68508;BME280;55510;49.560;19.090;2023-05-13T06:33:56;96987.91;;;12.16;68.12
68508;BME280;55510;49.560;19.090;2023-05-13T06:36:57;96979.28;;;12.26;67.50
68508;BME280;55510;49.560;19.090;2023-05-13T06:39:58;96979.38;;;12.31;67.96
68508;BME280;55510;49.560;19.090;2023-05-13T06:42:59;96979.13;;;12.32;67.50
68508;BME280;55510;49.560;19.090;2023-05-13T06:46:00;96973.78;;;12.32;68.76
68508;BME280;55510;49.560;19.090;2023-05-13T06:49:01;96975.97;;;12.36;68.91
68508;BME280;55510;49.560;19.090;2023-05-13T06:52:02;96977.38;;;12.38;68.02
68508;BME280;55510;49.560;19.090;2023-05-13T06:55:03;96983.63;;;12.44;67.59
68508;BME280;55510;49.560;19.090;2023-05-13T06:58:03;96978.34;;;12.49;67.95
68508;BME280;55510;49.560;19.090;2023-05-13T07:01:04;96983.28;;;12.57;68.74
68508;BME280;55510;49.560;19.090;2023-05-13T07:04:05;96974.88;;;12.48;67.60
68508;BME280;55510;49.560;19.090;2023-05-13T07:07:05;96981.91;;;12.55;67.81
68508;BME280;55510;49.560;19.090;2023-05-13T07:10:06;96983.88;;;12.59;67.78
68508;BME280;55510;49.560;19.090;2023-05-13T07:13:07;96985.56;;;12.66;68.00
68508;BME280;55510;49.560;19.090;2023-05-13T07:16:08;96977.56;;;12.66;67.35
68508;BME280;55510;49.560;19.090;2023-05-13T07:19:09;96978.69;;;12.70;66.34
68508;BME280;55510;49.560;19.090;2023-05-13T07:22:09;96985.81;;;12.81;66.41
68508;BME280;55510;49.560;19.090;2023-05-13T07:25:11;96980.16;;;12.95;67.46
68508;BME280;55510;49.560;19.090;2023-05-13T07:28:11;96980.38;;;13.10;66.59
68508;BME280;55510;49.560;19.090;2023-05-13T07:31:12;96972.09;;;13.29;67.35
68508;BME280;55510;49.560;19.090;2023-05-13T07:34:13;96979.84;;;13.47;66.29
68508;BME280;55510;49.560;19.090;2023-05-13T07:37:14;96983.25;;;13.65;65.97
68508;BME280;55510;49.560;19.090;2023-05-13T07:40:14;96971.09;;;13.74;63.78
68508;BME280;55510;49.560;19.090;2023-05-13T07:43:15;96973.84;;;13.80;61.57
68508;BME280;55510;49.560;19.090;2023-05-13T07:46:22;96975.50;;;13.86;60.58
68508;BME280;55510;49.560;19.090;2023-05-13T07:49:26;96964.91;;;13.96;58.61
68508;BME280;55510;49.560;19.090;2023-05-13T07:52:27;96964.78;;;14.08;57.92
68508;BME280;55510;49.560;19.090;2023-05-13T07:55:28;96965.19;;;14.22;56.31
68508;BME280;55510;49.560;19.090;2023-05-13T07:58:28;96956.16;;;14.28;56.34
68508;BME280;55510;49.560;19.090;2023-05-13T08:01:29;96962.72;;;14.48;56.49
68508;BME280;55510;49.560;19.090;2023-05-13T08:04:30;96962.84;;;14.58;56.18
68508;BME280;55510;49.560;19.090;2023-05-13T08:07:31;96962.44;;;14.72;56.10
68508;BME280;55510;49.560;19.090;2023-05-13T08:10:31;96965.22;;;14.87;55.48
68508;BME280;55510;49.560;19.090;2023-05-13T08:13:32;96964.19;;;14.93;57.31
68508;BME280;55510;49.560;19.090;2023-05-13T08:16:35;96964.78;;;15.01;57.72
68508;BME280;55510;49.560;19.090;2023-05-13T08:19:37;96959.59;;;15.27;56.74
68508;BME280;55510;49.560;19.090;2023-05-13T08:22:37;96958.56;;;15.38;56.01
68508;BME280;55510;49.560;19.090;2023-05-13T08:25:38;96955.16;;;15.53;54.84
68508;BME280;55510;49.560;19.090;2023-05-13T08:28:39;96957.84;;;15.58;55.33
68508;BME280;55510;49.560;19.090;2023-05-13T08:31:40;96960.06;;;15.72;54.56
68508;BME280;55510;49.560;19.090;2023-05-13T08:34:41;96955.06;;;15.91;54.33
68508;BME280;55510;49.560;19.090;2023-05-13T08:37:42;96949.44;;;16.03;53.47
68508;BME280;55510;49.560;19.090;2023-05-13T08:40:43;96942.50;;;16.12;53.69
68508;BME280;55510;49.560;19.090;2023-05-13T08:43:46;96949.75;;;16.17;52.46
68508;BME280;55510;49.560;19.090;2023-05-13T08:46:52;96947.09;;;16.27;51.04
68508;BME280;55510;49.560;19.090;2023-05-13T08:49:56;96941.47;;;16.34;49.37
68508;BME280;55510;49.560;19.090;2023-05-13T08:52:58;96947.63;;;16.29;51.06
68508;BME280;55510;49.560;19.090;2023-05-13T08:56:02;96940.63;;;16.13;49.79
68508;BME280;55510;49.560;19.090;2023-05-13T08:59:02;96937.09;;;15.97;49.78
68508;BME280;55510;49.560;19.090;2023-05-13T09:02:03;96937.78;;;15.66;47.71
68508;BME280;55510;49.560;19.090;2023-05-13T09:05:06;96938.88;;;15.70;49.26
68508;BME280;55510;49.560;19.090;2023-05-13T09:08:08;96931.94;;;15.85;50.35
68508;BME280;55510;49.560;19.090;2023-05-13T09:11:09;96933.28;;;15.87;50.29
68508;BME280;55510;49.560;19.090;2023-05-13T09:14:10;96932.97;;;15.78;49.35
68508;BME280;55510;49.560;19.090;2023-05-13T09:17:13;96927.59;;;15.68;50.50
68508;BME280;55510;49.560;19.090;2023-05-13T09:20:15;96931.56;;;15.55;49.47
68508;BME280;55510;49.560;19.090;2023-05-13T09:23:16;96922.63;;;15.39;49.72
68508;BME280;55510;49.560;19.090;2023-05-13T09:26:28;96929.59;;;15.35;51.40
68508;BME280;55510;49.560;19.090;2023-05-13T09:29:29;96922.34;;;15.30;50.69
68508;BME280;55510;49.560;19.090;2023-05-13T09:32:30;96923.94;;;15.26;50.16
68508;BME280;55510;49.560;19.090;2023-05-13T09:35:31;96928.19;;;14.79;50.02
68508;BME280;55510;49.560;19.090;2023-05-13T09:38:32;96929.94;;;14.68;50.44
68508;BME280;55510;49.560;19.090;2023-05-13T09:41:38;96919.59;;;14.77;50.82
68508;BME280;55510;49.560;19.090;2023-05-13T09:44:39;96927.66;;;14.77;50.20
68508;BME280;55510;49.560;19.090;2023-05-13T09:47:40;96928.69;;;14.71;50.42
68508;BME280;55510;49.560;19.090;2023-05-13T09:50:48;96923.97;;;14.56;53.23
68508;BME280;55510;49.560;19.090;2023-05-13T09:53:49;96925.53;;;14.19;51.02
68508;BME280;55510;49.560;19.090;2023-05-13T09:56:57;96929.44;;;14.06;52.05
68508;BME280;55510;49.560;19.090;2023-05-13T10:00:02;96925.53;;;14.19;51.67
68508;BME280;55510;49.560;19.090;2023-05-13T10:03:08;96920.91;;;14.09;50.39
68508;BME280;55510;49.560;19.090;2023-05-13T10:06:08;96929.72;;;14.10;52.07
68508;BME280;55510;49.560;19.090;2023-05-13T10:09:10;96923.38;;;14.16;50.77
68508;BME280;55510;49.560;19.090;2023-05-13T10:12:12;96929.31;;;14.23;50.92
68508;BME280;55510;49.560;19.090;2023-05-13T10:15:14;96925.13;;;14.32;51.93
68508;BME280;55510;49.560;19.090;2023-05-13T10:18:16;96923.03;;;14.40;53.82
68508;BME280;55510;49.560;19.090;2023-05-13T10:21:18;96928.69;;;14.43;53.28
68508;BME280;55510;49.560;19.090;2023-05-13T10:24:19;96925.75;;;14.45;55.71
68508;BME280;55510;49.560;19.090;2023-05-13T10:27:25;96924.13;;;14.44;53.88
68508;BME280;55510;49.560;19.090;2023-05-13T10:30:28;96930.75;;;14.36;53.44
68508;BME280;55510;49.560;19.090;2023-05-13T10:33:31;96926.31;;;14.47;55.87
68508;BME280;55510;49.560;19.090;2023-05-13T10:37:01;96933.63;;;14.57;56.12
68508;BME280;55510;49.560;19.090;2023-05-13T10:43:28;96928.63;;;14.65;56.75
68508;BME280;55510;49.560;19.090;2023-05-13T10:46:33;96941.00;;;14.72;54.32
68508;BME280;55510;49.560;19.090;2023-05-13T10:49:34;96938.09;;;14.78;55.70
68508;BME280;55510;49.560;19.090;2023-05-13T10:52:45;96936.78;;;14.81;54.55
68508;BME280;55510;49.560;19.090;2023-05-13T10:55:46;96933.59;;;14.84;53.41
68508;BME280;55510;49.560;19.090;2023-05-13T10:59:04;96933.38;;;14.91;53.55
68508;BME280;55510;49.560;19.090;2023-05-13T11:02:25;96936.88;;;14.97;54.79
68508;BME280;55510;49.560;19.090;2023-05-13T11:05:30;96939.03;;;15.00;53.75
68508;BME280;55510;49.560;19.090;2023-05-13T11:08:55;96945.25;;;15.05;54.36
68508;BME280;55510;49.560;19.090;2023-05-13T11:11:58;96941.16;;;14.98;53.76
68508;BME280;55510;49.560;19.090;2023-05-13T11:14:58;96943.84;;;14.98;52.40
68508;BME280;55510;49.560;19.090;2023-05-13T11:17:59;96933.94;;;14.93;52.13
68508;BME280;55510;49.560;19.090;2023-05-13T11:21:05;96950.22;;;14.86;53.23
68508;BME280;55510;49.560;19.090;2023-05-13T11:24:06;96948.56;;;14.80;53.04
68508;BME280;55510;49.560;19.090;2023-05-13T11:30:21;96955.38;;;14.60;54.87
68508;BME280;55510;49.560;19.090;2023-05-13T11:33:22;96957.38;;;14.48;53.97
68508;BME280;55510;49.560;19.090;2023-05-13T11:36:28;96956.78;;;14.41;54.35
68508;BME280;55510;49.560;19.090;2023-05-13T11:39:31;96959.09;;;14.32;54.97
68508;BME280;55510;49.560;19.090;2023-05-13T11:42:32;96961.44;;;14.23;55.97
68508;BME280;55510;49.560;19.090;2023-05-13T11:45:37;96967.50;;;14.13;56.27
68508;BME280;55510;49.560;19.090;2023-05-13T11:48:38;96969.81;;;14.04;58.85
68508;BME280;55510;49.560;19.090;2023-05-13T11:51:39;96976.00;;;13.83;56.22
68508;BME280;55510;49.560;19.090;2023-05-13T11:57:47;96975.00;;;13.67;56.74
68508;BME280;55510;49.560;19.090;2023-05-13T12:00:48;96969.28;;;13.58;58.87
68508;BME280;55510;49.560;19.090;2023-05-13T12:03:49;96975.88;;;13.50;60.10
68508;BME280;55510;49.560;19.090;2023-05-13T12:06:50;96974.16;;;13.44;62.23
68508;BME280;55510;49.560;19.090;2023-05-13T12:09:52;96971.66;;;13.37;62.28
68508;BME280;55510;49.560;19.090;2023-05-13T12:12:53;96965.69;;;13.30;63.29
68508;BME280;55510;49.560;19.090;2023-05-13T12:15:54;96969.03;;;13.20;60.86
68508;BME280;55510;49.560;19.090;2023-05-13T12:18:59;96967.34;;;13.14;61.46
68508;BME280;55510;49.560;19.090;2023-05-13T12:22:04;96969.19;;;13.13;61.86
68508;BME280;55510;49.560;19.090;2023-05-13T12:28:39;96967.63;;;13.17;65.23
68508;BME280;55510;49.560;19.090;2023-05-13T12:31:42;96966.59;;;13.18;66.13
68508;BME280;55510;49.560;19.090;2023-05-13T12:34:47;96976.22;;;13.19;66.06
68508;BME280;55510;49.560;19.090;2023-05-13T12:37:58;96975.91;;;13.16;64.37
68508;BME280;55510;49.560;19.090;2023-05-13T12:41:10;96976.72;;;13.16;63.01
68508;BME280;55510;49.560;19.090;2023-05-13T12:44:13;96974.09;;;13.22;62.83
68508;BME280;55510;49.560;19.090;2023-05-13T12:47:14;96974.84;;;13.34;63.67
68508;BME280;55510;49.560;19.090;2023-05-13T12:50:19;96976.50;;;13.40;61.04
68508;BME280;55510;49.560;19.090;2023-05-13T12:53:20;96967.09;;;13.55;62.28
68508;BME280;55510;49.560;19.090;2023-05-13T12:56:21;96974.34;;;13.76;62.02
68508;BME280;55510;49.560;19.090;2023-05-13T12:59:22;96968.66;;;13.95;61.06
68508;BME280;55510;49.560;19.090;2023-05-13T13:02:24;96967.00;;;14.16;61.40
68508;BME280;55510;49.560;19.090;2023-05-13T13:05:25;96967.97;;;14.32;60.38
68508;BME280;55510;49.560;19.090;2023-05-13T13:08:26;96968.09;;;14.48;58.89
68508;BME280;55510;49.560;19.090;2023-05-13T13:11:27;96966.88;;;14.61;58.74
68508;BME280;55510;49.560;19.090;2023-05-13T13:14:29;96959.38;;;14.63;58.60
68508;BME280;55510;49.560;19.090;2023-05-13T13:17:30;96966.78;;;14.78;58.22
68508;BME280;55510;49.560;19.090;2023-05-13T13:20:31;96961.44;;;14.83;55.94
68508;BME280;55510;49.560;19.090;2023-05-13T13:23:34;96969.25;;;14.85;55.81
68508;BME280;55510;49.560;19.090;2023-05-13T13:26:35;96957.16;;;14.82;54.47
68508;BME280;55510;49.560;19.090;2023-05-13T13:29:36;96961.97;;;14.80;56.57
68508;BME280;55510;49.560;19.090;2023-05-13T13:32:37;96955.75;;;14.74;55.96
68508;BME280;55510;49.560;19.090;2023-05-13T13:35:37;96964.06;;;14.73;55.95
68508;BME280;55510;49.560;19.090;2023-05-13T13:38:38;96960.25;;;14.69;55.90
68508;BME280;55510;49.560;19.090;2023-05-13T13:41:39;96968.78;;;14.65;57.31
68508;BME280;55510;49.560;19.090;2023-05-13T13:44:40;96966.56;;;14.57;55.98
68508;BME280;55510;49.560;19.090;2023-05-13T13:47:40;96956.06;;;14.50;56.74
68508;BME280;55510;49.560;19.090;2023-05-13T13:50:41;96968.09;;;14.48;56.95
68508;BME280;55510;49.560;19.090;2023-05-13T13:53:41;96965.56;;;14.36;57.44
68508;BME280;55510;49.560;19.090;2023-05-13T13:56:42;96967.97;;;14.32;58.88
68508;BME280;55510;49.560;19.090;2023-05-13T13:59:43;96966.38;;;14.36;60.62
68508;BME280;55510;49.560;19.090;2023-05-13T14:02:44;96967.50;;;14.41;61.89
68508;BME280;55510;49.560;19.090;2023-05-13T14:05:47;96968.50;;;14.34;59.09
68508;BME280;55510;49.560;19.090;2023-05-13T14:08:49;96975.38;;;14.25;57.94
68508;BME280;55510;49.560;19.090;2023-05-13T14:11:51;96968.88;;;14.16;58.52
68508;BME280;55510;49.560;19.090;2023-05-13T14:14:51;96964.31;;;14.16;59.42
68508;BME280;55510;49.560;19.090;2023-05-13T14:17:52;96959.47;;;14.13;59.85
68508;BME280;55510;49.560;19.090;2023-05-13T14:20:53;96962.16;;;14.13;62.22
68508;BME280;55510;49.560;19.090;2023-05-13T14:23:53;96964.50;;;14.10;62.16
68508;BME280;55510;49.560;19.090;2023-05-13T14:26:54;96958.59;;;14.07;64.63
68508;BME280;55510;49.560;19.090;2023-05-13T14:29:55;96967.63;;;14.01;63.58
68508;BME280;55510;49.560;19.090;2023-05-13T14:32:56;96967.59;;;13.96;63.50
68508;BME280;55510;49.560;19.090;2023-05-13T14:35:56;96961.13;;;13.92;64.31
68508;BME280;55510;49.560;19.090;2023-05-13T14:38:57;96957.06;;;13.89;65.87
68508;BME280;55510;49.560;19.090;2023-05-13T14:41:58;96957.84;;;13.85;65.49
68508;BME280;55510;49.560;19.090;2023-05-13T14:44:59;96961.00;;;13.82;64.81
68508;BME280;55510;49.560;19.090;2023-05-13T14:47:59;96971.66;;;13.76;63.54
68508;BME280;55510;49.560;19.090;2023-05-13T14:51:00;96974.28;;;13.71;62.79
68508;BME280;55510;49.560;19.090;2023-05-13T14:54:02;96974.00;;;13.73;62.91
68508;BME280;55510;49.560;19.090;2023-05-13T14:57:04;96969.72;;;13.72;63.57
68508;BME280;55510;49.560;19.090;2023-05-13T15:00:05;96969.22;;;13.75;63.47
68508;BME280;55510;49.560;19.090;2023-05-13T15:03:06;96966.53;;;13.75;63.44
68508;BME280;55510;49.560;19.090;2023-05-13T15:06:07;96963.06;;;13.74;64.14
68508;BME280;55510;49.560;19.090;2023-05-13T15:09:08;96971.88;;;13.75;63.55
68508;BME280;55510;49.560;19.090;2023-05-13T15:12:08;96972.06;;;13.68;63.99
68508;BME280;55510;49.560;19.090;2023-05-13T15:15:10;96970.16;;;13.63;64.86
68508;BME280;55510;49.560;19.090;2023-05-13T15:18:11;96964.69;;;13.53;64.92
68508;BME280;55510;49.560;19.090;2023-05-13T15:21:12;96964.38;;;13.49;65.58
68508;BME280;55510;49.560;19.090;2023-05-13T15:24:12;96966.97;;;13.44;65.36
68508;BME280;55510;49.560;19.090;2023-05-13T15:27:13;96961.63;;;13.44;66.07
68508;BME280;55510;49.560;19.090;2023-05-13T15:30:14;96965.81;;;13.40;63.83
68508;BME280;55510;49.560;19.090;2023-05-13T15:33:15;96962.03;;;13.36;63.95
68508;BME280;55510;49.560;19.090;2023-05-13T15:36:15;96964.69;;;13.36;64.50
68508;BME280;55510;49.560;19.090;2023-05-13T15:39:16;96962.25;;;13.34;63.72
68508;BME280;55510;49.560;19.090;2023-05-13T15:42:17;96962.53;;;13.33;64.07
68508;BME280;55510;49.560;19.090;2023-05-13T15:45:18;96962.47;;;13.28;64.04
68508;BME280;55510;49.560;19.090;2023-05-13T15:50:21;96961.81;;;13.20;66.78
68508;BME280;55510;49.560;19.090;2023-05-13T15:53:22;96959.66;;;13.00;66.65
68508;BME280;55510;49.560;19.090;2023-05-13T15:56:23;96954.56;;;12.99;66.86
68508;BME280;55510;49.560;19.090;2023-05-13T15:59:25;96953.59;;;13.05;68.06
68508;BME280;55510;49.560;19.090;2023-05-13T16:02:25;96964.19;;;13.00;68.28
68508;BME280;55510;49.560;19.090;2023-05-13T16:05:29;96964.75;;;13.02;69.68
68508;BME280;55510;49.560;19.090;2023-05-13T16:08:29;96960.06;;;12.92;69.76
68508;BME280;55510;49.560;19.090;2023-05-13T16:11:30;96951.81;;;12.94;69.79
68508;BME280;55510;49.560;19.090;2023-05-13T16:14:31;96953.09;;;12.91;69.83
68508;BME280;55510;49.560;19.090;2023-05-13T16:17:32;96959.69;;;12.83;73.28